Time;durP1;ratioP1;P1;durP2;ratioP2;P2;SDS_P1;SDS_P2;PMS_P1;PMS_P2;Temp;Humidity;BMP_temperature;BMP_pressure;BME280_temperature;BME280_humidity;BME280_pressure;Samples;Min_cycle;Max_cycle;Signal;HPM_P1;HPM_P2
2022/07/03 00:00:47;;;;;;;1.73;0.77;;;21.10;75.00;;;;;;5052451;28;20040;-70
2022/07/03 00:03:12;;;;;;;3.45;1.38;;;21.10;75.20;;;;;;5051692;28;20036;-71
2022/07/03 00:05:38;;;;;;;2.40;1.40;;;21.10;75.80;;;;;;5051522;28;20085;-71
2022/07/03 00:08:04;;;;;;;2.55;1.30;;;21.10;75.50;;;;;;5051840;28;20029;-73
2022/07/03 00:10:30;;;;;;;2.97;0.90;;;21.10;75.80;;;;;;5051496;28;20077;-72
2022/07/03 00:12:56;;;;;;;2.42;1.00;;;21.10;74.80;;;;;;5052028;28;20025;-71
2022/07/03 00:15:22;;;;;;;3.42;1.20;;;21.10;75.70;;;;;;5052006;28;20041;-71
2022/07/03 00:17:48;;;;;;;5.65;1.23;;;21.00;76.00;;;;;;5051366;28;20086;-72
2022/07/03 00:20:13;;;;;;;3.95;1.08;;;21.00;76.00;;;;;;5050542;28;20045;-71
2022/07/03 00:22:43;;;;;;;2.00;1.20;;;21.00;75.70;;;;;;5050728;28;20036;-71
2022/07/03 00:25:11;;;;;;;3.60;1.00;;;20.90;75.30;;;;;;5051374;28;20086;-71
2022/07/03 00:27:38;;;;;;;3.03;1.05;;;20.90;75.10;;;;;;5052199;28;20017;-72
2022/07/03 00:30:10;;;;;;;2.55;1.40;;;20.90;75.20;;;;;;5051269;28;20471;-70
2022/07/03 00:32:38;;;;;;;6.50;1.80;;;20.80;75.60;;;;;;5049364;28;20375;-71
2022/07/03 00:35:05;;;;;;;1.90;1.15;;;20.80;75.50;;;;;;5051155;28;20029;-71
2022/07/03 00:37:30;;;;;;;2.80;1.13;;;20.80;76.00;;;;;;5051294;28;20041;-71
2022/07/03 00:39:57;;;;;;;2.58;1.30;;;20.80;75.80;;;;;;5051459;28;20087;-70
2022/07/03 00:42:23;;;;;;;3.50;1.08;;;20.80;76.10;;;;;;5051192;28;20112;-71
2022/07/03 00:44:54;;;;;;;3.80;1.40;;;20.70;76.10;;;;;;5051043;28;20120;-72
2022/07/03 00:47:27;;;;;;;2.28;0.80;;;20.70;76.20;;;;;;5051057;28;20060;-70
2022/07/03 00:49:55;;;;;;;1.20;1.00;;;20.60;76.90;;;;;;5051308;28;20116;-70
2022/07/03 00:52:22;;;;;;;1.33;1.00;;;20.60;76.20;;;;;;5050990;28;20017;-70
2022/07/03 00:54:52;;;;;;;1.38;1.10;;;20.60;77.10;;;;;;5051439;28;20049;-71
2022/07/03 00:57:19;;;;;;;2.50;1.15;;;20.50;77.10;;;;;;5049791;28;20109;-71
2022/07/03 00:59:45;;;;;;;0.90;0.88;;;20.60;77.10;;;;;;5050707;28;20030;-71
2022/07/03 01:02:21;;;;;;;1.38;0.98;;;20.50;77.60;;;;;;5050672;28;20112;-71
2022/07/03 01:05:10;;;;;;;3.00;1.13;;;20.50;77.20;;;;;;5050828;28;20481;-70
2022/07/03 01:08:09;;;;;;;3.15;1.33;;;20.50;77.50;;;;;;5049511;28;20029;-71
2022/07/03 01:10:37;;;;;;;1.63;1.10;;;20.50;77.80;;;;;;5050549;28;20036;-71
2022/07/03 01:13:24;;;;;;;2.50;0.90;;;20.40;77.00;;;;;;5051357;28;20163;-71
2022/07/03 01:16:16;;;;;;;1.63;1.00;;;20.40;77.40;;;;;;5049670;28;20452;-71
2022/07/03 01:18:48;;;;;;;3.97;1.17;;;20.40;77.40;;;;;;5044707;28;20429;-71
2022/07/03 01:21:34;;;;;;;1.08;0.98;;;20.40;77.90;;;;;;5050169;28;20043;-70
2022/07/03 01:24:27;;;;;;;2.20;1.10;;;20.40;77.80;;;;;;5049339;28;20037;-71
2022/07/03 01:26:59;;;;;;;1.50;0.98;;;20.30;77.90;;;;;;5049401;28;20021;-72
2022/07/03 01:29:56;;;;;;;2.83;1.00;;;20.30;78.30;;;;;;5050363;28;20029;-71
2022/07/03 01:32:27;;;;;;;2.43;0.90;;;20.20;78.30;;;;;;5035993;28;20309;-72
2022/07/03 01:34:55;;;;;;;1.42;0.90;;;20.20;78.30;;;;;;5050584;28;20033;-71
2022/07/03 01:37:23;;;;;;;2.88;1.38;;;20.20;78.70;;;;;;5069057;28;20035;-71
2022/07/03 01:39:53;;;;;;;1.63;1.10;;;20.20;78.30;;;;;;5070908;28;20012;-72
2022/07/03 01:42:19;;;;;;;6.20;0.95;;;20.20;78.90;;;;;;5070278;28;20100;-71
2022/07/03 01:44:48;;;;;;;0.80;0.80;;;20.10;79.50;;;;;;5070129;28;20094;-72
2022/07/03 01:47:15;;;;;;;2.42;1.15;;;20.00;80.20;;;;;;5070200;28;20374;-72
2022/07/03 01:49:42;;;;;;;4.93;1.50;;;20.00;80.30;;;;;;5070094;28;20566;-72
2022/07/03 01:52:10;;;;;;;1.77;0.93;;;20.00;81.00;;;;;;5070191;28;20032;-72
2022/07/03 01:54:39;;;;;;;2.78;1.10;;;19.90;80.80;;;;;;5070468;28;20470;-72
2022/07/03 01:57:08;;;;;;;3.00;1.13;;;19.90;80.90;;;;;;5070195;28;20120;-72
2022/07/03 01:59:35;;;;;;;3.10;1.05;;;19.90;80.40;;;;;;5069944;28;20033;-72
2022/07/03 02:02:14;;;;;;;1.17;0.90;;;19.80;80.30;;;;;;5068781;28;20037;-71
2022/07/03 02:05:10;;;;;;;1.20;0.90;;;19.80;79.90;;;;;;5069959;28;20093;-72
2022/07/03 02:07:41;;;;;;;1.25;0.93;;;19.80;80.50;;;;;;5069501;28;20096;-72
2022/07/03 02:10:09;;;;;;;1.10;0.80;;;19.70;80.90;;;;;;5068832;28;20021;-72
2022/07/03 02:12:59;;;;;;;2.28;1.10;;;19.70;80.40;;;;;;5070177;28;20013;-72
2022/07/03 02:15:35;;;;;;;6.88;1.00;;;19.70;80.40;;;;;;5069806;28;20041;-71
2022/07/03 02:18:24;;;;;;;5.30;0.98;;;19.60;80.70;;;;;;5069781;28;20051;-72
2022/07/03 02:21:03;;;;;;;5.03;0.90;;;19.70;80.70;;;;;;5069658;28;20094;-72
2022/07/03 02:23:33;;;;;;;2.20;1.13;;;19.60;80.20;;;;;;5069734;28;20456;-72
2022/07/03 02:26:04;;;;;;;1.45;0.80;;;19.60;79.90;;;;;;5069786;28;20033;-71
2022/07/03 02:28:47;;;;;;;1.90;1.00;;;19.60;80.30;;;;;;5069578;28;20106;-72
2022/07/03 02:31:16;;;;;;;1.33;0.93;;;19.60;80.70;;;;;;5069711;28;20024;-71
2022/07/03 02:33:44;;;;;;;1.20;0.98;;;19.60;80.00;;;;;;5070070;28;20028;-71
2022/07/03 02:36:16;;;;;;;1.45;1.00;;;19.50;80.30;;;;;;5069649;28;20474;-71
2022/07/03 02:38:44;;;;;;;2.60;1.27;;;19.50;79.70;;;;;;5069698;28;20041;-71
2022/07/03 02:41:19;;;;;;;;;;;19.50;80.10;;;;;;5070088;28;20037;-71
2022/07/03 02:44:16;;;;;;;2.25;1.17;;;19.50;80.90;;;;;;5069705;28;20030;-71
2022/07/03 02:47:03;;;;;;;2.38;1.42;;;19.50;80.60;;;;;;5069687;28;20037;-71
2022/07/03 02:49:43;;;;;;;2.28;1.42;;;19.50;80.80;;;;;;5068399;28;20033;-71
2022/07/03 02:52:28;;;;;;;2.50;1.30;;;19.50;80.70;;;;;;5068294;28;20025;-70
2022/07/03 02:54:58;;;;;;;3.38;1.30;;;19.50;81.20;;;;;;5070764;28;20394;-70
2022/07/03 02:57:24;;;;;;;3.72;1.23;;;19.50;81.10;;;;;;5071775;28;20033;-69
2022/07/03 02:59:53;;;;;;;1.73;1.10;;;19.50;81.30;;;;;;5072932;28;20529;-71
2022/07/03 03:02:22;;;;;;;1.58;0.93;;;19.60;80.90;;;;;;5072955;28;20544;-71
2022/07/03 03:05:02;;;;;;;1.38;1.10;;;19.60;81.10;;;;;;5072813;28;20037;-71
2022/07/03 03:08:07;;;;;;;2.28;1.00;;;19.60;81.90;;;;;;5072805;28;20033;-71
2022/07/03 03:10:37;;;;;;;1.35;0.90;;;19.60;80.80;;;;;;5033933;28;20374;-72
2022/07/03 03:13:08;;;;;;;1.30;1.10;;;19.60;81.10;;;;;;5073077;28;20040;-72
2022/07/03 03:15:36;;;;;;;4.30;1.50;;;19.60;81.50;;;;;;5073064;28;20052;-71
2022/07/03 03:18:05;;;;;;;4.53;1.33;;;19.60;80.80;;;;;;5072427;28;20477;-72
2022/07/03 03:20:34;;;;;;;2.85;1.20;;;19.60;81.00;;;;;;5072496;28;20033;-71
2022/07/03 03:23:31;;;;;;;3.17;1.67;;;19.60;80.90;;;;;;5072730;28;20037;-71
2022/07/03 03:25:58;;;;;;;2.58;1.60;;;19.60;81.40;;;;;;5072625;28;20028;-71
2022/07/03 03:28:25;;;;;;;4.25;1.50;;;19.50;81.10;;;;;;5071368;28;20036;-71
2022/07/03 03:30:51;;;;;;;2.63;1.10;;;19.50;81.20;;;;;;5072850;28;20024;-71
2022/07/03 03:33:17;;;;;;;1.83;1.30;;;19.50;81.30;;;;;;5071255;28;20029;-71
2022/07/03 03:35:43;;;;;;;2.08;1.35;;;19.50;81.70;;;;;;5072469;28;20055;-71
2022/07/03 03:38:09;;;;;;;2.63;1.15;;;19.50;81.60;;;;;;5072211;28;20382;-72
2022/07/03 03:40:34;;;;;;;2.53;1.00;;;19.50;82.20;;;;;;5072123;28;20043;-71
2022/07/03 03:43:01;;;;;;;1.90;1.13;;;19.50;81.40;;;;;;5072593;28;20158;-72
2022/07/03 03:45:27;;;;;;;2.03;1.17;;;19.50;81.90;;;;;;5071210;28;20032;-71
2022/07/03 03:47:53;;;;;;;2.47;0.90;;;19.50;82.20;;;;;;5070990;28;20034;-70
2022/07/03 03:50:19;;;;;;;1.23;0.95;;;19.40;81.70;;;;;;5072165;28;20033;-71
2022/07/03 03:52:44;;;;;;;2.42;1.20;;;19.50;82.50;;;;;;5070708;28;20048;-71
2022/07/03 03:55:10;;;;;;;1.50;0.80;;;19.50;82.20;;;;;;5071958;28;20209;-71
2022/07/03 03:57:36;;;;;;;1.75;1.17;;;19.50;82.00;;;;;;5072294;28;20031;-71
2022/07/03 04:00:03;;;;;;;1.33;0.77;;;19.50;83.00;;;;;;5070602;28;20033;-72
2022/07/03 04:02:29;;;;;;;2.92;1.10;;;19.50;81.90;;;;;;5071886;28;20494;-72
2022/07/03 04:04:55;;;;;;;1.38;1.00;;;19.50;82.40;;;;;;5071863;28;20039;-72
2022/07/03 04:07:20;;;;;;;1.08;0.98;;;19.50;82.60;;;;;;5070595;28;20435;-71
2022/07/03 04:09:46;;;;;;;1.08;0.98;;;19.50;82.10;;;;;;5072375;28;20017;-72
2022/07/03 04:12:12;;;;;;;2.42;1.25;;;19.50;82.20;;;;;;5070415;28;20094;-71
2022/07/03 04:14:38;;;;;;;3.00;0.90;;;19.60;81.90;;;;;;5071600;28;20033;-72
2022/07/03 04:17:04;;;;;;;2.65;0.90;;;19.60;82.00;;;;;;5071455;28;20055;-72
2022/07/03 04:19:30;;;;;;;2.05;0.90;;;19.60;81.40;;;;;;5071473;28;20024;-72
2022/07/03 04:21:55;;;;;;;1.98;0.95;;;19.70;82.00;;;;;;5071867;28;20087;-72
2022/07/03 04:24:21;;;;;;;2.00;0.90;;;19.60;82.00;;;;;;5071284;28;20513;-71
2022/07/03 04:26:47;;;;;;;3.17;1.08;;;19.70;81.70;;;;;;5071379;28;20090;-72
2022/07/03 04:29:13;;;;;;;1.55;0.90;;;19.70;81.70;;;;;;5071063;28;20078;-72
2022/07/03 04:31:38;;;;;;;3.15;1.08;;;19.70;82.10;;;;;;5071405;28;20028;-72
2022/07/03 04:34:04;;;;;;;1.48;0.80;;;19.80;81.80;;;;;;5071685;28;20024;-71
2022/07/03 04:36:30;;;;;;;3.03;1.25;;;19.80;81.80;;;;;;5071230;28;20048;-72
2022/07/03 04:38:56;;;;;;;1.98;1.10;;;19.80;81.80;;;;;;5070985;28;20044;-73
2022/07/03 04:41:21;;;;;;;3.42;0.80;;;19.80;81.80;;;;;;5070947;28;20036;-73
2022/07/03 04:43:47;;;;;;;2.30;1.17;;;19.80;81.80;;;;;;5071030;28;20047;-70
2022/07/03 04:46:13;;;;;;;0.60;0.60;;;19.80;82.00;;;;;;5070769;28;20032;-71
2022/07/03 04:48:39;;;;;;;0.60;0.60;;;19.90;82.00;;;;;;5070439;28;20021;-71
2022/07/03 04:51:07;;;;;;;2.38;1.15;;;19.90;81.90;;;;;;5070612;28;20036;-71
2022/07/03 04:53:33;;;;;;;3.05;0.93;;;20.00;81.90;;;;;;5062478;28;20423;-70
2022/07/03 04:55:59;;;;;;;1.98;0.88;;;20.00;81.80;;;;;;5070839;28;20358;-71
2022/07/03 04:58:25;;;;;;;1.50;0.63;;;20.10;81.90;;;;;;5070644;28;20041;-70
2022/07/03 05:00:51;;;;;;;3.42;1.13;;;20.10;81.70;;;;;;5071077;28;20448;-71
2022/07/03 05:03:17;;;;;;;4.55;0.98;;;20.20;81.70;;;;;;5070720;28;20029;-72
2022/07/03 05:05:42;;;;;;;2.38;0.98;;;20.20;81.60;;;;;;5070550;28;20178;-72
2022/07/03 05:08:08;;;;;;;0.70;0.68;;;20.30;81.40;;;;;;5070464;28;20032;-71
2022/07/03 05:10:34;;;;;;;2.85;0.82;;;20.30;81.30;;;;;;5070267;28;20036;-72
2022/07/03 05:12:59;;;;;;;1.90;1.17;;;20.40;81.80;;;;;;5070917;28;20466;-72
2022/07/03 05:15:25;;;;;;;2.08;1.10;;;20.40;81.50;;;;;;5069274;28;20029;-72
2022/07/03 05:17:51;;;;;;;3.67;1.00;;;20.40;81.60;;;;;;5070183;28;20135;-71
2022/07/03 05:20:29;;;;;;;2.60;0.98;;;20.50;81.00;;;;;;5070419;28;20032;-71
2022/07/03 05:22:56;;;;;;;3.78;1.20;;;20.50;80.70;;;;;;5070526;28;20443;-70
2022/07/03 05:25:23;;;;;;;1.10;0.85;;;20.60;80.90;;;;;;5069282;28;20042;-71
2022/07/03 05:27:55;;;;;;;0.98;0.80;;;20.60;80.90;;;;;;5071110;28;20017;-71
2022/07/03 05:30:22;;;;;;;1.40;0.77;;;20.70;80.80;;;;;;5070004;28;20501;-71
2022/07/03 05:32:48;;;;;;;2.63;1.00;;;20.70;80.80;;;;;;5070143;28;20059;-71
2022/07/03 05:35:14;;;;;;;2.03;1.40;;;20.80;80.80;;;;;;5068993;28;20037;-71
2022/07/03 05:37:40;;;;;;;5.13;1.38;;;20.90;80.80;;;;;;5069962;28;20517;-71
2022/07/03 05:40:07;;;;;;;1.35;1.00;;;20.90;81.20;;;;;;5070134;28;20104;-71
2022/07/03 05:42:33;;;;;;;3.33;0.82;;;21.00;80.60;;;;;;5070639;28;20012;-71
2022/07/03 05:44:59;;;;;;;3.20;0.80;;;21.00;80.40;;;;;;5070081;28;20493;-70
2022/07/03 05:47:24;;;;;;;2.10;1.02;;;21.10;80.50;;;;;;5068844;28;20037;-71
2022/07/03 05:49:50;;;;;;;2.05;0.63;;;21.10;79.90;;;;;;5070148;28;20039;-70
2022/07/03 05:52:16;;;;;;;1.42;0.73;;;21.20;79.90;;;;;;5069152;28;20013;-71
2022/07/03 05:54:42;;;;;;;1.05;0.80;;;21.30;80.10;;;;;;5070279;28;20054;-70
2022/07/03 05:57:08;;;;;;;4.32;1.10;;;21.40;80.00;;;;;;5070021;28;20039;-71
2022/07/03 05:59:33;;;;;;;2.25;0.80;;;21.50;80.10;;;;;;5069742;28;20028;-70
2022/07/03 06:01:59;;;;;;;3.88;0.80;;;21.60;79.80;;;;;;5070057;28;20366;-71
2022/07/03 06:04:25;;;;;;;1.58;0.90;;;21.70;79.60;;;;;;5070089;28;20439;-72
2022/07/03 06:06:50;;;;;;;5.43;3.40;;;21.70;79.30;;;;;;5070493;28;20033;-72
2022/07/03 06:09:17;;;;;;;2.78;1.45;;;21.80;79.30;;;;;;5068942;28;20037;-72
2022/07/03 06:11:43;;;;;;;2.00;1.33;;;21.90;79.20;;;;;;5069967;28;20542;-71
2022/07/03 06:14:08;;;;;;;2.00;1.00;;;21.90;79.10;;;;;;5069877;28;20131;-71
2022/07/03 06:16:34;;;;;;;7.07;4.25;;;21.90;78.20;;;;;;5055185;28;20116;-71
2022/07/03 06:19:00;;;;;;;5.97;1.10;;;22.00;78.20;;;;;;5050198;28;20344;-71
2022/07/03 06:21:26;;;;;;;4.68;1.13;;;22.00;77.60;;;;;;5050014;28;20418;-72
2022/07/03 06:23:51;;;;;;;2.03;0.85;;;22.00;77.60;;;;;;5050208;28;20029;-71
2022/07/03 06:26:29;;;;;;;1.90;0.95;;;22.00;77.20;;;;;;5050047;28;20033;-71
2022/07/03 06:28:55;;;;;;;3.35;0.90;;;22.00;77.20;;;;;;5049895;28;20033;-72
2022/07/03 06:31:23;;;;;;;0.93;0.68;;;22.10;77.40;;;;;;5052871;28;20032;-72
2022/07/03 06:33:49;;;;;;;1.67;0.95;;;22.40;77.80;;;;;;5054036;28;20025;-72
2022/07/03 06:36:20;;;;;;;1.55;0.98;;;22.40;77.20;;;;;;5053565;28;20040;-72
2022/07/03 06:38:46;;;;;;;2.70;0.70;;;22.50;77.40;;;;;;5053630;28;20375;-72
2022/07/03 06:41:21;;;;;;;2.55;1.00;;;22.50;77.20;;;;;;5053335;28;20055;-73
2022/07/03 06:43:46;;;;;;;1.55;1.00;;;22.50;76.80;;;;;;5053509;28;20471;-72
2022/07/03 06:46:21;;;;;;;4.25;1.10;;;22.50;76.70;;;;;;5053337;28;20037;-73
2022/07/03 06:48:47;;;;;;;2.13;0.98;;;22.60;76.70;;;;;;5053696;28;20024;-71
2022/07/03 06:51:22;;;;;;;1.70;1.10;;;22.60;76.60;;;;;;5053313;28;20021;-71
2022/07/03 06:53:47;;;;;;;3.65;1.23;;;22.60;76.40;;;;;;5053072;28;20499;-71
2022/07/03 06:56:22;;;;;;;2.85;1.10;;;22.70;76.60;;;;;;5053009;28;20049;-69
2022/07/03 06:58:48;;;;;;;2.42;1.00;;;22.90;76.40;;;;;;5052929;28;20037;-71
2022/07/03 07:01:22;;;;;;;2.40;1.13;;;23.00;76.10;;;;;;5052649;28;20159;-71
2022/07/03 07:03:48;;;;;;;2.05;0.77;;;23.10;75.80;;;;;;5053456;28;20051;-71
2022/07/03 07:06:16;;;;;;;2.22;1.00;;;23.40;75.50;;;;;;5052825;28;20470;-71
2022/07/03 07:08:42;;;;;;;3.75;0.80;;;23.60;74.20;;;;;;5052968;28;20379;-70
2022/07/03 07:11:25;;;;;;;0.93;0.63;;;23.80;73.60;;;;;;5053176;28;20041;-70
2022/07/03 07:13:51;;;;;;;1.90;0.98;;;23.80;72.80;;;;;;5052762;28;20098;-70
2022/07/03 07:16:17;;;;;;;2.97;0.90;;;24.00;72.40;;;;;;5051722;28;20462;-70
2022/07/03 07:18:43;;;;;;;1.48;1.13;;;24.20;71.60;;;;;;5053310;28;20074;-72
2022/07/03 07:21:18;;;;;;;5.57;1.33;;;24.30;71.80;;;;;;5053171;28;20025;-71
2022/07/03 07:23:44;;;;;;;7.78;1.10;;;24.40;71.70;;;;;;5051452;28;20043;-70
2022/07/03 07:26:34;;;;;;;2.95;1.00;;;24.40;71.30;;;;;;5051460;28;20025;-71
2022/07/03 07:29:00;;;;;;;2.25;0.82;;;24.30;71.20;;;;;;5052268;28;20021;-73
2022/07/03 07:31:25;;;;;;;2.35;0.95;;;24.20;70.60;;;;;;5052672;28;20372;-70
2022/07/03 07:33:51;;;;;;;0.80;0.80;;;24.20;70.20;;;;;;5052847;28;20515;-71
2022/07/03 07:36:20;;;;;;;1.25;0.80;;;24.20;70.00;;;;;;5052521;28;20115;-71
2022/07/03 07:38:45;;;;;;;4.10;1.00;;;24.20;69.40;;;;;;5052290;28;20115;-70
2022/07/03 07:41:30;;;;;;;0.80;0.80;;;24.20;68.80;;;;;;5052146;28;20479;-69
2022/07/03 07:43:56;;;;;;;2.30;0.75;;;24.20;68.80;;;;;;5052309;28;20120;-71
2022/07/03 07:46:28;;;;;;;1.65;0.80;;;24.40;69.20;;;;;;5055365;28;20441;-72
2022/07/03 07:48:54;;;;;;;2.65;0.85;;;24.50;68.40;;;;;;5051504;28;20333;-70
2022/07/03 07:51:22;;;;;;;1.00;0.70;;;24.70;68.80;;;;;;5052434;28;20037;-70
2022/07/03 07:53:50;;;;;;;5.15;1.17;;;24.80;68.50;;;;;;5051863;28;20404;-71
2022/07/03 07:56:33;;;;;;;1.80;0.90;;;24.90;68.50;;;;;;5051917;28;20299;-70
2022/07/03 07:59:00;;;;;;;3.28;1.40;;;25.00;68.10;;;;;;5053628;28;20037;-70
2022/07/03 08:06:54;;;;;;;1.77;0.77;;;25.20;67.60;;;;;;5052025;28;20102;-72
2022/07/03 08:09:20;;;;;;;2.25;1.00;;;25.30;66.80;;;;;;5050648;28;20053;-73
2022/07/03 08:11:45;;;;;;;2.15;0.88;;;25.50;66.50;;;;;;5051364;28;20120;-71
2022/07/03 08:14:11;;;;;;;2.92;1.25;;;25.70;66.40;;;;;;5051671;28;20033;-72
2022/07/03 08:16:40;;;;;;;1.25;0.80;;;26.10;66.40;;;;;;5050651;28;20123;-74
2022/07/03 08:19:06;;;;;;;2.35;1.00;;;26.50;65.20;;;;;;5051556;28;20318;-74
2022/07/03 08:21:32;;;;;;;2.55;1.30;;;27.10;65.20;;;;;;5051848;28;20112;-75
2022/07/03 08:23:58;;;;;;;1.05;0.88;;;27.70;63.10;;;;;;5050499;28;20397;-76
2022/07/03 08:26:23;;;;;;;2.13;1.30;;;28.10;62.70;;;;;;5051883;28;20029;-77
2022/07/03 08:28:49;;;;;;;2.05;0.90;;;28.40;59.90;;;;;;5050876;28;20140;-78
2022/07/03 08:31:37;;;;;;;3.63;0.75;;;28.80;58.30;;;;;;5051529;28;20075;-72
2022/07/03 08:34:03;;;;;;;1.75;0.95;;;29.20;59.70;;;;;;5052013;28;20025;-74
2022/07/03 08:36:28;;;;;;;1.75;1.13;;;30.00;57.90;;;;;;5051441;28;20443;-73
2022/07/03 08:38:56;;;;;;;2.38;0.80;;;30.10;56.50;;;;;;5051247;28;20037;-71
2022/07/03 08:41:23;;;;;;;2.17;1.00;;;29.50;55.70;;;;;;5051266;28;20537;-69
2022/07/03 08:43:50;;;;;;;3.75;0.93;;;29.20;56.80;;;;;;5051287;28;20495;-69
2022/07/03 08:46:32;;;;;;;2.92;0.95;;;29.20;58.00;;;;;;5051169;28;20039;-70
2022/07/03 08:49:03;;;;;;;8.85;0.80;;;29.20;57.20;;;;;;5051427;28;20049;-69
2022/07/03 08:51:29;;;;;;;3.13;1.40;;;29.70;58.10;;;;;;5050829;28;20036;-69
2022/07/03 08:53:55;;;;;;;3.45;0.85;;;30.60;59.30;;;;;;5050053;28;20041;-70
2022/07/03 08:56:22;;;;;;;2.92;1.00;;;31.20;54.30;;;;;;5050839;28;20463;-69
2022/07/03 08:58:48;;;;;;;2.38;0.80;;;31.50;53.80;;;;;;5050527;28;20048;-70
2022/07/03 09:01:26;;;;;;;1.95;0.90;;;32.70;53.30;;;;;;5050642;28;20037;-70
2022/07/03 09:03:52;;;;;;;2.25;0.80;;;32.00;53.60;;;;;;5050940;28;20017;-69
2022/07/03 09:06:19;;;;;;;2.22;0.73;;;32.50;51.10;;;;;;5050473;28;20033;-70
2022/07/03 09:08:46;;;;;;;1.48;1.20;;;32.70;52.30;;;;;;5050435;28;20376;-70
2022/07/03 09:11:18;;;;;;;;;;;33.20;50.40;;;;;;5051315;28;20045;-71
2022/07/03 09:13:44;;;;;;;2.58;1.00;;;31.90;49.00;;;;;;5049450;28;20285;-68
2022/07/03 09:16:21;;;;;;;6.07;0.90;;;31.80;50.00;;;;;;5050509;28;20086;-69
2022/07/03 09:18:47;;;;;;;;;;;32.30;49.40;;;;;;5051480;28;20401;-67
2022/07/03 09:21:36;;;;;;;1.95;0.80;;;31.60;49.30;;;;;;5050645;28;19909;-68
2022/07/03 09:24:06;;;;;;;1.88;0.80;;;31.30;48.50;;;;;;5050454;28;20098;-67
2022/07/03 09:26:51;;;;;;;2.38;0.80;;;31.60;51.70;;;;;;5050218;28;20036;-71
2022/07/03 09:29:17;;;;;;;1.80;0.80;;;31.60;49.70;;;;;;5050429;28;20163;-71
2022/07/03 09:31:53;;;;;;;2.47;0.70;;;31.20;50.20;;;;;;5049226;28;20501;-70
2022/07/03 09:34:21;;;;;;;1.67;0.80;;;31.50;49.80;;;;;;5050186;28;20025;-68
2022/07/03 09:36:52;;;;;;;4.28;0.85;;;31.50;50.70;;;;;;5051056;28;20017;-70
2022/07/03 09:39:34;;;;;;;2.63;1.30;;;31.00;48.90;;;;;;5050081;28;20036;-70
2022/07/03 09:42:03;;;;;;;5.13;0.90;;;31.00;49.90;;;;;;5050329;28;20117;-71
2022/07/03 09:44:29;;;;;;;1.42;0.70;;;31.00;50.00;;;;;;5050313;28;20114;-69
2022/07/03 09:47:15;;;;;;;4.90;0.93;;;30.70;50.30;;;;;;5050016;28;20152;-69
2022/07/03 09:50:13;;;;;;;10.55;1.23;;;30.60;50.00;;;;;;5050131;28;20022;-69
2022/07/03 09:52:44;;;;;;;3.85;0.75;;;30.40;49.90;;;;;;5047917;28;20454;-70
2022/07/03 09:55:10;;;;;;;5.32;1.05;;;30.30;49.80;;;;;;5049960;28;20048;-70
2022/07/03 09:57:58;;;;;;;2.13;0.80;;;30.40;49.90;;;;;;5050801;28;20451;-69
2022/07/03 10:00:35;;;;;;;1.45;0.70;;;29.70;49.40;;;;;;5050166;28;20029;-69
2022/07/03 10:03:09;;;;;;;5.47;0.95;;;29.60;50.10;;;;;;5050244;28;20116;-68
2022/07/03 10:05:42;;;;;;;1.48;1.00;;;29.90;50.20;;;;;;5051999;28;20029;-69
2022/07/03 10:08:10;;;;;;;5.25;0.98;;;30.00;49.90;;;;;;5054514;28;20029;-69
2022/07/03 10:10:40;;;;;;;;;;;29.90;50.00;;;;;;5054591;28;20376;-71
2022/07/03 10:13:06;;;;;;;3.20;0.90;;;30.00;50.30;;;;;;5054116;28;19905;-69
2022/07/03 10:15:36;;;;;;;4.50;0.93;;;30.00;50.30;;;;;;5036789;28;20021;-70
2022/07/03 10:18:05;;;;;;;2.13;0.70;;;30.00;50.00;;;;;;5054171;28;20102;-68
2022/07/03 10:20:43;;;;;;;2.65;0.80;;;29.90;50.00;;;;;;5053826;28;20033;-69
2022/07/03 10:23:09;;;;;;;1.98;0.70;;;29.70;49.90;;;;;;5053729;28;20379;-68
2022/07/03 10:25:35;;;;;;;1.13;0.68;;;29.70;50.40;;;;;;5053985;28;20051;-69
2022/07/03 10:28:01;;;;;;;1.63;0.70;;;29.90;50.60;;;;;;5052860;28;20060;-69
2022/07/03 10:30:28;;;;;;;1.30;0.70;;;30.20;49.90;;;;;;5053644;28;20044;-70
2022/07/03 10:32:55;;;;;;;0.70;0.70;;;30.20;50.00;;;;;;5053674;28;20090;-71
2022/07/03 10:35:25;;;;;;;4.50;1.05;;;30.40;50.10;;;;;;5053690;28;20033;-71
2022/07/03 10:38:17;;;;;;;4.00;0.73;;;30.50;50.30;;;;;;5053642;28;20048;-71
2022/07/03 10:46:39;;;;;;;1.38;0.70;;;30.40;48.90;;;;;;5053687;28;20198;-71
2022/07/03 10:49:15;;;;;;;4.88;1.23;;;30.10;48.80;;;;;;5053571;28;20029;-70
2022/07/03 10:51:59;;;;;;;1.15;0.55;;;30.10;50.30;;;;;;5053484;28;20029;-71
2022/07/03 10:54:49;;;;;;;2.63;1.00;;;30.30;48.50;;;;;;5052972;28;20176;-69
2022/07/03 10:57:17;;;;;;;4.25;0.73;;;30.10;48.70;;;;;;5053024;28;20107;-71
2022/07/03 10:59:44;;;;;;;1.15;0.60;;;30.00;48.90;;;;;;5035639;28;20112;-71
2022/07/03 11:02:40;;;;;;;2.17;0.80;;;30.10;49.10;;;;;;5053363;28;20454;-71
2022/07/03 11:05:09;;;;;;;4.00;1.00;;;30.00;49.20;;;;;;5051896;28;20035;-71
2022/07/03 11:07:50;;;;;;;6.07;1.15;;;29.90;49.20;;;;;;5052997;28;20039;-71
2022/07/03 11:10:16;;;;;;;1.25;0.60;;;30.00;49.60;;;;;;5051873;28;20028;-74
2022/07/03 11:13:10;;;;;;;1.98;0.85;;;30.00;48.90;;;;;;5052296;28;20174;-72
2022/07/03 11:15:52;;;;;;;2.40;0.93;;;29.90;49.50;;;;;;5052385;28;20362;-70
2022/07/03 11:18:27;;;;;;;1.85;0.95;;;29.90;49.80;;;;;;5051679;28;20029;-70
2022/07/03 11:20:52;;;;;;;1.20;0.45;;;30.00;50.10;;;;;;5052861;28;20087;-69
2022/07/03 11:23:27;;;;;;;2.42;0.70;;;29.90;50.00;;;;;;5051479;28;20041;-69
2022/07/03 11:25:57;;;;;;;4.82;0.80;;;29.70;50.30;;;;;;5052722;28;20470;-72
2022/07/03 11:28:32;;;;;;;2.22;0.75;;;29.70;50.50;;;;;;5052624;28;20107;-69
2022/07/03 11:31:21;;;;;;;2.30;0.60;;;29.80;50.40;;;;;;5053373;28;20389;-69
2022/07/03 11:33:56;;;;;;;3.42;1.38;;;29.80;50.80;;;;;;5052855;28;20055;-68
2022/07/03 11:36:29;;;;;;;3.50;0.90;;;29.80;50.20;;;;;;5052458;28;20173;-72
2022/07/03 11:38:55;;;;;;;1.17;0.68;;;29.90;49.80;;;;;;5052388;28;20036;-73
2022/07/03 11:41:22;;;;;;;3.35;0.90;;;29.60;49.80;;;;;;5052340;28;20367;-72
2022/07/03 11:44:01;;;;;;;2.55;0.75;;;29.70;50.10;;;;;;5052355;28;20036;-71
2022/07/03 11:46:38;;;;;;;0.85;0.70;;;29.80;49.80;;;;;;5052743;28;20037;-78
2022/07/03 11:49:14;;;;;;;2.78;0.93;;;29.70;49.70;;;;;;5052686;28;20024;-71
2022/07/03 11:51:56;;;;;;;3.80;0.95;;;29.70;50.40;;;;;;5052440;28;20444;-72
2022/07/03 11:54:22;;;;;;;1.77;0.93;;;29.80;50.00;;;;;;5051993;28;20118;-71
2022/07/03 11:56:48;;;;;;;3.13;0.73;;;29.80;49.70;;;;;;5052018;28;20119;-70
2022/07/03 11:59:13;;;;;;;2.13;1.10;;;29.70;50.00;;;;;;5051959;28;20175;-71
2022/07/03 12:01:39;;;;;;;3.35;1.02;;;29.80;50.00;;;;;;5052260;28;20111;-71
2022/07/03 12:04:24;;;;;;;2.15;0.70;;;29.60;49.70;;;;;;5052374;28;20367;-72
2022/07/03 12:06:51;;;;;;;0.95;0.65;;;29.40;49.80;;;;;;5052746;28;20037;-71
2022/07/03 12:09:33;;;;;;;0.55;0.55;;;29.40;49.90;;;;;;5051792;28;20044;-68
2022/07/03 12:12:04;;;;;;;1.38;0.75;;;29.50;50.00;;;;;;5052059;28;20166;-70
2022/07/03 12:14:50;;;;;;;6.97;1.40;;;29.40;49.90;;;;;;5050659;28;20086;-71
2022/07/03 12:17:16;;;;;;;1.17;0.80;;;29.30;50.10;;;;;;5050334;28;20475;-70
2022/07/03 12:19:53;;;;;;;1.00;0.73;;;29.30;50.40;;;;;;5051761;28;20305;-71
2022/07/03 12:22:37;;;;;;;3.22;0.85;;;29.40;49.50;;;;;;5050539;28;20024;-70
2022/07/03 12:25:10;;;;;;;4.80;1.40;;;29.50;48.90;;;;;;5052377;28;20029;-70
2022/07/03 12:27:40;;;;;;;3.13;1.05;;;29.60;49.40;;;;;;5051047;28;20052;-72
2022/07/03 12:30:07;;;;;;;10.20;3.80;;;29.60;48.70;;;;;;5051561;28;20107;-69
2022/07/03 12:32:33;;;;;;;2.90;0.90;;;29.50;48.90;;;;;;5051557;28;20078;-69
2022/07/03 12:35:00;;;;;;;1.73;0.73;;;29.50;48.80;;;;;;5051619;28;20033;-70
2022/07/03 12:37:37;;;;;;;1.13;0.70;;;29.40;48.40;;;;;;5057871;28;20040;-72
2022/07/03 12:40:06;;;;;;;8.15;2.30;;;29.30;48.60;;;;;;5072302;28;20081;-71
2022/07/03 12:42:47;;;;;;;2.67;1.00;;;29.20;49.00;;;;;;5071795;28;20029;-71
2022/07/03 12:45:21;;;;;;;5.07;1.13;;;29.40;48.80;;;;;;5070536;28;20032;-69
2022/07/03 12:48:06;;;;;;;0.98;0.60;;;29.40;48.20;;;;;;5070548;28;20032;-69
2022/07/03 12:50:54;;;;;;;3.20;1.40;;;29.40;48.00;;;;;;5071509;28;20025;-69
2022/07/03 12:53:31;;;;;;;4.55;1.52;;;29.20;48.50;;;;;;5070878;28;20048;-70
2022/07/03 12:56:04;;;;;;;8.30;0.90;;;29.20;48.20;;;;;;5071398;28;20028;-69
2022/07/03 13:01:33;;;;;;;1.95;0.70;;;29.20;48.20;;;;;;5071625;28;20559;-70
2022/07/03 13:03:59;;;;;;;1.15;0.70;;;29.10;47.60;;;;;;5071635;28;20047;-70
2022/07/03 13:06:29;;;;;;;3.60;0.60;;;29.10;48.00;;;;;;5071138;28;20462;-70
2022/07/03 13:09:00;;;;;;;0.70;0.50;;;29.00;47.80;;;;;;5070995;28;20047;-69
2022/07/03 13:11:37;;;;;;;3.08;0.82;;;29.10;47.90;;;;;;5070782;28;20033;-70
2022/07/03 13:14:09;;;;;;;6.28;1.25;;;29.00;48.10;;;;;;5070773;28;20434;-74
2022/07/03 13:16:40;;;;;;;1.10;0.68;;;29.00;48.20;;;;;;5070699;28;20055;-71
2022/07/03 13:19:07;;;;;;;1.52;0.95;;;29.00;48.00;;;;;;5070515;28;20148;-72
2022/07/03 13:21:34;;;;;;;0.77;0.60;;;29.00;48.20;;;;;;5071764;28;20039;-73